Culmore, United Kingdom
Current Conditions -  °F | °C
As of 5:30 PM on Monday 20 Oct 2014 (Local Time) from EIDL Reporting Station
Overcast Overcast  
Wind Chill: 57°   Ceiling: 3100
Heat Index: 57°   Visibility: 6mi
Dew Point: 52°   Wind: 20mph
Humidity: 82%   Direction: 220°SW
Pressure: 29.59"   Gusts: NA
Location:  55.05°N, 7.27°W
Report Text: EIDL 201630Z 22017KT 9999 FEW025 OVC031 14/11 Q1002
Loading
Personal Weather Stations






























Interactive Weather Map
Tropical Storm Tracking
New forecast layout! Learn more

10-Day Weather Forecast

Advertisements
Track Severe Weather on mobile